Time;durP1;ratioP1;P1;durP2;ratioP2;P2;SDS_P1;SDS_P2;PMS_P1;PMS_P2;Temp;Humidity;BMP_temperature;BMP_pressure;BME280_temperature;BME280_humidity;BME280_pressure;Samples;Min_cycle;Max_cycle;Signal;HPM_P1;HPM_P2
2022/09/03 00:01:39;;;;;;;6.53;5.43;;;;;;;-141.28;100.00;48177.72;5095366;28;20199;-77
2022/09/03 00:04:31;;;;;;;9.37;6.27;;;;;;;-141.28;100.00;48160.06;5103064;28;20635;-75
2022/09/03 00:07:03;;;;;;;10.40;6.30;;;;;;;-141.28;100.00;48136.53;5088927;28;20203;-78
2022/09/03 00:09:40;;;;;;;9.90;6.37;;;;;;;-141.28;100.00;48113.00;5083125;28;20211;-76
2022/09/03 00:12:14;;;;;;;7.93;5.83;;;;;;;-141.28;100.00;48113.00;5088750;28;20249;-75
2022/09/03 00:14:46;;;;;;;7.53;5.90;;;;;;;-141.28;100.00;48122.81;5083022;28;20533;-75
2022/09/03 00:17:17;;;;;;;7.03;5.37;;;;;;;-141.28;100.00;48134.56;5097233;28;20200;-76
2022/09/03 00:19:54;;;;;;;9.13;6.00;;;;;;;-141.28;100.00;48136.53;5089436;28;20204;-76
2022/09/03 00:22:27;;;;;;;10.60;5.77;;;;;;;-141.28;100.00;48171.84;5084099;28;20535;-77
2022/09/03 00:24:59;;;;;;;6.87;6.00;;;;;;;-141.28;100.00;48148.31;5092633;28;20571;-76
2022/09/03 00:27:28;;;;;;;8.60;6.07;;;;;;;-141.28;100.00;48156.16;5088227;28;20294;-76
2022/09/03 00:30:00;;;;;;;8.57;5.80;;;;;;;-141.28;100.00;48154.19;5089437;28;20654;-75
2022/09/03 00:32:34;;;;;;;10.77;6.17;;;;;;;-141.28;100.00;48164.00;5091274;28;20274;-76
2022/09/03 00:35:10;;;;;;;7.87;5.93;;;;;;;-141.28;100.00;48185.56;5095294;28;20199;-75
2022/09/03 00:37:37;;;;;;;7.93;5.83;;;;;;;-141.28;100.00;48183.59;5094351;28;20676;-75
2022/09/03 00:40:10;;;;;;;8.90;5.43;;;;;;;-141.28;100.00;48179.69;5085931;28;20219;-76
2022/09/03 00:42:48;;;;;;;7.27;6.00;;;;;;;-141.28;100.00;48218.91;5090064;28;20188;-75
2022/09/03 00:45:32;;;;;;;7.30;6.00;;;;;;;-141.28;100.00;48222.84;5090513;28;20215;-75
2022/09/03 00:48:15;;;;;;;8.87;6.03;;;;;;;-141.28;100.00;48215.00;5084291;28;20207;-76
2022/09/03 00:51:00;;;;;;;8.37;6.40;;;;;;;-141.28;100.00;48244.41;5090684;28;20202;-75
2022/09/03 00:53:35;;;;;;;7.13;6.10;;;;;;;-141.28;100.00;48228.72;5089988;28;20252;-76
2022/09/03 00:56:10;;;;;;;8.17;5.80;;;;;;;-141.28;100.00;48216.94;5092890;28;20199;-75
2022/09/03 00:58:51;;;;;;;9.33;6.23;;;;;;;-141.28;100.00;48226.75;5085500;28;20202;-77
2022/09/03 01:01:22;;;;;;;7.13;5.53;;;;;;;-141.28;100.00;48218.91;5050991;28;20220;-76
2022/09/03 01:04:05;;;;;;;7.43;5.83;;;;;;;-141.28;100.00;48203.22;5051502;28;20288;-76
2022/09/03 01:06:44;;;;;;;8.67;5.70;;;;;;;-141.28;100.00;48234.59;5070480;28;20220;-75
2022/09/03 01:09:28;;;;;;;8.53;5.77;;;;;;;-141.28;100.00;48232.66;5060387;28;20201;-75
2022/09/03 01:12:01;;;;;;;7.67;5.77;;;;;;;-141.28;100.00;48230.69;5062726;28;20197;-76
2022/09/03 01:14:41;;;;;;;7.43;5.53;;;;;;;-141.28;100.00;48234.59;5049847;28;20680;-75
2022/09/03 01:17:17;;;;;;;8.73;5.97;;;;;;;-141.28;100.00;48226.75;5049787;28;20189;-75
2022/09/03 01:20:12;;;;;;;7.20;5.50;;;;;;;-141.28;100.00;48260.09;5050009;28;20197;-75
2022/09/03 01:23:08;;;;;;;6.90;5.60;;;;;;;-141.28;100.00;48287.56;5056784;28;20196;-74
2022/09/03 01:25:52;;;;;;;9.13;5.93;;;;;;;-141.28;100.00;48285.59;5053312;28;20229;-75
2022/09/03 01:28:33;;;;;;;8.57;5.47;;;;;;;-141.28;100.00;48256.19;5046868;28;20246;-75
2022/09/03 01:31:14;;;;;;;8.93;6.43;;;;;;;-141.28;100.00;48244.41;5048797;28;20196;-75
2022/09/03 01:33:48;;;;;;;7.77;6.20;;;;;;;-141.28;100.00;48230.69;5052759;28;20203;-75
2022/09/03 01:36:23;;;;;;;8.00;6.17;;;;;;;-141.28;100.00;48224.81;5053146;28;20201;-75
2022/09/03 01:38:56;;;;;;;6.90;5.30;;;;;;;-141.28;100.00;48207.16;5048747;28;20550;-76
2022/09/03 01:44:31;;;;;;;8.47;6.00;;;;;;;-141.28;100.00;48269.91;5060195;28;20289;-75
2022/09/03 01:47:09;;;;;;;8.07;6.33;;;;;;;-141.28;100.00;48220.88;5054677;28;20221;-75
2022/09/03 01:49:42;;;;;;;6.47;5.30;;;;;;;-141.28;100.00;48207.16;5049184;28;20266;-74
2022/09/03 01:52:17;;;;;;;9.00;5.97;;;;;;;-141.28;100.00;48195.38;5048170;28;20311;-75
2022/09/03 01:54:54;;;;;;;8.07;5.87;;;;;;;-141.28;100.00;48195.38;5049188;28;20196;-75
2022/09/03 01:57:38;;;;;;;7.17;5.67;;;;;;;-141.28;100.00;48203.22;5059531;28;20197;-77
2022/09/03 02:00:12;;;;;;;8.07;5.87;;;;;;;-141.28;100.00;48207.16;5072258;28;20598;-74
2022/09/03 02:02:42;;;;;;;8.00;5.80;;;;;;;-141.28;100.00;48199.31;5091591;28;20210;-76
2022/09/03 02:05:13;;;;;;;8.17;6.17;;;;;;;-141.28;100.00;48148.31;5079228;28;20203;-74
2022/09/03 02:07:42;;;;;;;9.93;6.00;;;;;;;-141.28;100.00;48175.75;5091054;28;20191;-75
2022/09/03 02:10:13;;;;;;;7.47;6.37;;;;;;;-141.28;100.00;48179.69;5083548;28;20250;-74
2022/09/03 02:12:47;;;;;;;7.77;5.93;;;;;;;-141.28;100.00;48187.53;5096361;28;20577;-76
2022/09/03 02:15:21;;;;;;;6.90;5.57;;;;;;;-141.28;100.00;48207.16;5095665;28;20202;-74
2022/09/03 02:17:49;;;;;;;9.90;6.53;;;;;;;-141.28;100.00;48203.22;5089291;28;20210;-75
2022/09/03 02:20:21;;;;;;;9.07;6.20;;;;;;;-141.28;100.00;48207.16;5093026;28;20535;-76
2022/09/03 02:22:48;;;;;;;8.20;6.53;;;;;;;-141.28;100.00;48205.19;5076651;28;20235;-75
2022/09/03 02:25:16;;;;;;;8.17;6.00;;;;;;;-141.28;100.00;48215.00;5089890;28;20199;-75
2022/09/03 02:27:45;;;;;;;7.10;5.97;;;;;;;-141.28;100.00;48213.03;5076908;28;20200;-75
2022/09/03 02:30:12;;;;;;;8.17;6.57;;;;;;;-141.28;100.00;48211.06;5079448;28;20219;-76
2022/09/03 02:32:41;;;;;;;8.83;6.80;;;;;;;-141.28;100.00;48211.06;5080494;28;20201;-75
2022/09/03 02:35:09;;;;;;;12.37;6.47;;;;;;;-141.28;100.00;48211.06;5089337;28;20600;-76
2022/09/03 02:37:39;;;;;;;8.50;6.13;;;;;;;-141.28;100.00;48207.16;5094908;28;20210;-75
2022/09/03 02:40:09;;;;;;;8.37;5.97;;;;;;;-141.28;100.00;48199.31;5088445;28;20215;-76
2022/09/03 02:42:38;;;;;;;8.60;6.47;;;;;;;-141.28;100.00;48218.91;5096089;28;20195;-75
2022/09/03 02:45:18;;;;;;;8.97;6.83;;;;;;;-141.28;100.00;48228.72;5088907;28;20208;-76
2022/09/03 02:47:54;;;;;;;8.00;6.30;;;;;;;-141.28;100.00;48254.22;5075816;28;20200;-74
2022/09/03 02:50:22;;;;;;;9.27;6.27;;;;;;;-141.28;100.00;48250.31;5077767;28;20195;-76
2022/09/03 02:52:49;;;;;;;9.00;6.30;;;;;;;-141.28;100.00;48234.59;5093049;28;20199;-75
2022/09/03 02:55:26;;;;;;;9.47;6.17;;;;;;;-141.28;100.00;48254.22;5093639;28;20195;-78
2022/09/03 02:57:56;;;;;;;10.03;6.80;;;;;;;-141.28;100.00;48246.38;5096260;28;20637;-75
2022/09/03 03:03:17;;;;;;;8.60;6.60;;;;;;;-141.28;100.00;48297.38;5080690;28;20211;-75
2022/09/03 03:05:50;;;;;;;8.70;6.67;;;;;;;-141.28;100.00;48250.31;5096698;28;20277;-75
2022/09/03 03:08:20;;;;;;;9.17;6.93;;;;;;;-141.28;100.00;48266.00;5074438;28;20208;-75
2022/09/03 03:10:48;;;;;;;9.63;6.50;;;;;;;-141.28;100.00;48254.22;5095459;28;20302;-76
2022/09/03 03:13:18;;;;;;;8.60;6.53;;;;;;;-141.28;100.00;48254.22;5087786;28;20199;-75
2022/09/03 03:15:47;;;;;;;10.07;7.10;;;;;;;-141.28;100.00;48266.00;5092306;28;20203;-76
2022/09/03 03:18:24;;;;;;;9.10;6.93;;;;;;;-141.28;100.00;48273.84;5075347;28;20206;-75
2022/09/03 03:20:51;;;;;;;9.20;7.10;;;;;;;-141.28;100.00;48348.38;5089348;28;20210;-75
2022/09/03 03:23:19;;;;;;;8.83;6.87;;;;;;;-141.28;100.00;48285.59;5093581;28;20655;-75
2022/09/03 03:25:47;;;;;;;9.20;7.20;;;;;;;-141.28;100.00;48293.47;5096590;28;20220;-76
2022/09/03 03:28:14;;;;;;;11.60;7.57;;;;;;;-141.28;100.00;48279.72;5087385;28;20196;-76
2022/09/03 03:30:46;;;;;;;12.00;6.87;;;;;;;-141.28;100.00;48328.75;5094610;28;20196;-74
2022/09/03 03:33:16;;;;;;;10.77;7.70;;;;;;;-141.28;100.00;48313.06;5103211;28;20290;-75
2022/09/03 03:35:43;;;;;;;10.03;7.53;;;;;;;-141.28;100.00;48315.03;5095807;28;20662;-76
2022/09/03 03:38:11;;;;;;;8.23;6.43;;;;;;;-141.28;100.00;48313.06;5092561;28;20195;-75
2022/09/03 03:40:38;;;;;;;9.33;6.43;;;;;;;-141.28;100.00;48309.16;5088293;28;20208;-74
2022/09/03 03:43:06;;;;;;;10.03;7.13;;;;;;;-141.28;100.00;48317.00;5098305;28;20228;-77
2022/09/03 03:45:33;;;;;;;8.33;6.70;;;;;;;-141.28;100.00;48320.91;5094811;28;20204;-75
2022/09/03 03:48:00;;;;;;;12.07;7.03;;;;;;;-141.28;100.00;48332.69;5091771;28;20205;-76
2022/09/03 03:50:29;;;;;;;8.40;6.90;;;;;;;-141.28;100.00;48328.75;5102775;28;20191;-75
2022/09/03 03:53:00;;;;;;;7.90;6.13;;;;;;;-141.28;100.00;48328.75;5111485;28;20220;-74
2022/09/03 03:55:30;;;;;;;9.73;6.83;;;;;;;-141.28;100.00;48328.75;5099725;28;20199;-77
2022/09/03 03:57:59;;;;;;;8.03;6.63;;;;;;;-141.28;100.00;48334.66;5093131;28;20211;-74
2022/09/03 04:00:26;;;;;;;8.53;6.80;;;;;;;-141.28;100.00;48317.00;5085581;28;20241;-76
2022/09/03 04:02:53;;;;;;;9.70;6.73;;;;;;;-141.28;100.00;48297.38;5096506;28;20195;-75
2022/09/03 04:05:21;;;;;;;10.13;6.87;;;;;;;-141.28;100.00;48311.09;5094389;28;20199;-75
2022/09/03 04:07:52;;;;;;;10.53;7.07;;;;;;;-141.28;100.00;48320.91;5091511;28;20218;-76
2022/09/03 04:10:21;;;;;;;8.47;7.00;;;;;;;-141.28;100.00;48318.97;5096205;28;20195;-76
2022/09/03 04:12:48;;;;;;;13.13;6.70;;;;;;;-141.28;100.00;48322.88;5091196;28;20203;-74
2022/09/03 04:15:16;;;;;;;8.57;7.03;;;;;;;-141.28;100.00;48332.69;5090586;28;20638;-75
2022/09/03 04:17:43;;;;;;;8.53;6.13;;;;;;;-141.28;100.00;48324.84;5102700;28;20200;-77
2022/09/03 04:20:11;;;;;;;11.33;6.80;;;;;;;-141.28;100.00;48348.38;5088484;28;20573;-74
2022/09/03 04:22:38;;;;;;;9.23;6.60;;;;;;;-141.28;100.00;48340.53;5093852;28;20188;-76
2022/09/03 04:25:07;;;;;;;10.10;6.80;;;;;;;-141.28;100.00;48360.16;5101517;28;20218;-74
2022/09/03 04:27:35;;;;;;;7.93;6.10;;;;;;;-141.28;100.00;48371.91;5091302;28;20237;-76
2022/09/03 04:30:02;;;;;;;8.53;6.87;;;;;;;-141.28;100.00;48383.69;5075078;28;20258;-74
2022/09/03 04:35:15;;;;;;;8.53;6.57;;;;;;;-141.28;100.00;48446.47;5079039;28;20218;-75
2022/09/03 04:37:41;;;;;;;7.93;6.33;;;;;;;-141.28;100.00;48399.38;5089058;28;20203;-76
2022/09/03 04:40:14;;;;;;;10.83;7.23;;;;;;;-141.28;100.00;48389.56;5093980;28;20586;-75
2022/09/03 04:42:42;;;;;;;9.03;6.40;;;;;;;-141.28;100.00;48379.78;5088131;28;20191;-75
2022/09/03 04:45:17;;;;;;;9.40;7.40;;;;;;;-141.28;100.00;48387.63;5090150;28;20222;-75
2022/09/03 04:47:46;;;;;;;14.00;7.67;;;;;;;-141.28;100.00;48403.31;5091458;28;20233;-75
2022/09/03 04:50:13;;;;;;;8.23;6.43;;;;;;;-141.28;100.00;48403.31;5090298;28;20188;-73
2022/09/03 04:52:41;;;;;;;8.40;6.73;;;;;;;-141.28;100.00;48397.41;5082868;28;20211;-76
2022/09/03 04:55:10;;;;;;;8.50;6.73;;;;;;;-141.28;100.00;48399.38;5077751;28;20199;-76
2022/09/03 04:57:38;;;;;;;7.60;6.13;;;;;;;-141.28;100.00;48407.22;5076042;28;20630;-78
2022/09/03 05:00:10;;;;;;;8.90;6.87;;;;;;;-141.28;100.00;48332.69;5080728;28;20686;-76
2022/09/03 05:02:38;;;;;;;10.33;7.17;;;;;;;-141.28;100.00;48466.09;5085737;28;20198;-75
2022/09/03 05:05:14;;;;;;;12.00;7.03;;;;;;;-141.28;100.00;48444.50;5101719;28;20198;-76
2022/09/03 05:07:50;;;;;;;11.37;6.90;;;;;;;-141.28;100.00;48424.88;5093728;28;20219;-76
2022/09/03 05:10:20;;;;;;;10.90;7.17;;;;;;;-141.28;100.00;48442.53;5070632;28;20199;-75
2022/09/03 05:12:57;;;;;;;8.97;7.27;;;;;;;-141.28;100.00;48438.63;5091855;28;20261;-75
2022/09/03 05:15:24;;;;;;;10.73;6.60;;;;;;;-141.28;100.00;48466.09;5099549;28;20194;-73
2022/09/03 05:17:55;;;;;;;12.23;8.37;;;;;;;-141.28;100.00;48442.53;5091648;28;20192;-75
2022/09/03 05:20:22;;;;;;;10.13;7.43;;;;;;;-141.28;100.00;48477.84;5084110;28;20196;-76
2022/09/03 05:22:49;;;;;;;11.83;7.60;;;;;;;-141.28;100.00;48454.31;5080696;28;20310;-75
2022/09/03 05:25:16;;;;;;;10.07;6.73;;;;;;;-141.28;100.00;48466.09;5088817;28;20202;-75
2022/09/03 05:27:43;;;;;;;8.40;5.90;;;;;;;-141.28;100.00;48466.09;5087337;28;20223;-76
2022/09/03 05:30:16;;;;;;;7.60;6.20;;;;;;;-141.28;100.00;48495.50;5076451;28;20210;-74
2022/09/03 05:32:44;;;;;;;7.83;6.33;;;;;;;-141.28;100.00;48485.69;5089307;28;20188;-76
2022/09/03 05:35:11;;;;;;;9.43;6.50;;;;;;;-141.28;100.00;48493.53;5091723;28;20195;-74
2022/09/03 05:37:38;;;;;;;7.63;5.90;;;;;;;-141.28;100.00;48513.16;5090877;28;20199;-76
2022/09/03 05:40:10;;;;;;;8.00;5.93;;;;;;;-141.28;100.00;48572.00;5090701;28;20219;-74
2022/09/03 05:42:37;;;;;;;9.80;6.20;;;;;;;-141.28;100.00;48548.47;5088870;28;20221;-75
2022/09/03 05:45:10;;;;;;;8.90;6.43;;;;;;;-141.28;100.00;48542.59;5091822;28;20571;-76
2022/09/03 05:47:39;;;;;;;7.80;6.00;;;;;;;-141.28;100.00;48577.91;5079284;28;20285;-74
2022/09/03 05:50:09;;;;;;;7.27;6.03;;;;;;;-141.28;100.00;48587.72;5082695;28;20257;-74
2022/09/03 05:52:36;;;;;;;8.73;6.60;;;;;;;-141.28;100.00;48595.56;5094947;28;20196;-76
2022/09/03 05:55:06;;;;;;;8.27;6.63;;;;;;;-141.28;100.00;48591.63;5086294;28;20606;-74
2022/09/03 05:57:34;;;;;;;8.47;6.67;;;;;;;-141.28;100.00;48623.03;5090232;28;20214;-76
2022/09/03 06:00:01;;;;;;;6.90;6.10;;;;;;;-141.28;100.00;48623.03;5076555;28;20232;-74
2022/09/03 06:02:36;;;;;;;7.73;5.97;;;;;;;-141.28;100.00;48634.78;5087360;28;20333;-78
2022/09/03 06:05:06;;;;;;;9.63;6.20;;;;;;;-141.28;100.00;48677.94;5090415;28;20202;-77
2022/09/03 06:07:34;;;;;;;7.33;5.67;;;;;;;-141.28;100.00;48687.75;5095421;28;20219;-75
2022/09/03 06:10:04;;;;;;;9.87;6.63;;;;;;;-141.28;100.00;48677.94;5091407;28;20202;-75
2022/09/03 06:12:34;;;;;;;8.60;6.73;;;;;;;-141.28;100.00;48717.19;5080051;28;20301;-76
2022/09/03 06:15:01;;;;;;;7.73;6.10;;;;;;;-141.28;100.00;48746.63;5090289;28;20207;-75
2022/09/03 06:17:33;;;;;;;8.33;6.13;;;;;;;-141.28;100.00;48760.34;5083691;28;20201;-76
2022/09/03 06:20:01;;;;;;;9.07;6.10;;;;;;;-141.28;100.00;48787.81;5086502;28;20251;-77
2022/09/03 06:22:52;;;;;;;7.60;6.27;;;;;;;-141.28;100.00;48901.59;5089041;28;20533;-78
2022/09/03 06:25:21;;;;;;;7.43;6.03;;;;;;;-141.28;100.00;48960.47;5087805;28;20195;-75
2022/09/03 06:27:50;;;;;;;8.03;6.50;;;;;;;-141.28;100.00;48933.00;5087648;28;20226;-74
2022/09/03 06:30:17;;;;;;;9.40;6.47;;;;;;;-141.28;100.00;48946.72;5068536;28;20199;-75
2022/09/03 06:32:49;;;;;;;8.67;6.23;;;;;;;-141.28;100.00;48997.75;5081228;28;20682;-77
2022/09/03 06:35:17;;;;;;;7.57;6.00;;;;;;;-141.28;100.00;49035.03;5085282;28;20196;-76
2022/09/03 06:37:44;;;;;;;8.10;6.50;;;;;;;-141.28;100.00;49038.94;5085795;28;20640;-76
2022/09/03 06:40:21;;;;;;;9.93;6.33;;;;;;;-141.28;100.00;49080.16;5098157;28;20226;-76
2022/09/03 06:43:01;;;;;;;9.20;6.10;;;;;;;-141.28;100.00;49188.06;5091581;28;20190;-78
2022/09/03 06:45:29;;;;;;;8.13;6.50;;;;;;;-141.28;100.00;49168.44;5094540;28;20677;-75
2022/09/03 06:47:56;;;;;;;8.97;6.30;;;;;;;-141.28;100.00;49158.63;5087557;28;20752;-75
2022/09/03 06:50:25;;;;;;;7.07;5.97;;;;;;;-141.28;100.00;49160.59;5084998;28;20187;-76
2022/09/03 06:52:54;;;;;;;8.03;6.10;;;;;;;-141.28;100.00;49215.53;5092804;28;20206;-76
2022/09/03 06:55:23;;;;;;;7.90;6.20;;;;;;;-141.28;100.00;49278.31;5070892;28;20287;-76
2022/09/03 06:57:53;;;;;;;6.63;5.83;;;;;;;-141.28;100.00;49262.63;5088629;28;20192;-75
2022/09/03 07:00:20;;;;;;;8.13;6.47;;;;;;;-141.28;100.00;49327.38;5100126;28;20317;-75
2022/09/03 07:02:48;;;;;;;9.13;6.37;;;;;;;-141.28;100.00;49352.88;5070482;28;20192;-77
2022/09/03 07:05:16;;;;;;;7.40;5.97;;;;;;;-141.28;100.00;49376.44;5069987;28;20568;-78
2022/09/03 07:07:43;;;;;;;9.30;5.90;;;;;;;-141.28;100.00;49335.22;5098839;28;20223;-75
2022/09/03 07:10:15;;;;;;;6.97;5.87;;;;;;;-141.28;100.00;49376.44;5092261;28;20689;-74
2022/09/03 07:12:45;;;;;;;5.80;4.87;;;;;;;-141.28;100.00;49458.84;5086142;28;20191;-75
2022/09/03 07:15:13;;;;;;;7.23;6.30;;;;;;;-141.28;100.00;49466.69;5075227;28;20193;-75
2022/09/03 07:17:43;;;;;;;10.97;6.80;;;;;;;-141.28;100.00;49502.03;5075065;28;20205;-76
2022/09/03 07:20:10;;;;;;;8.53;5.73;;;;;;;-141.28;100.00;49572.66;5069780;28;20207;-76
2022/09/03 07:22:37;;;;;;;9.53;6.00;;;;;;;-141.28;100.00;49623.69;5079206;28;20192;-75
2022/09/03 07:25:10;;;;;;;8.70;6.27;;;;;;;-141.28;100.00;49717.88;5089529;28;20200;-76
2022/09/03 07:27:44;;;;;;;6.87;5.67;;;;;;;-141.28;100.00;49878.81;5085331;28;20220;-74
2022/09/03 07:30:12;;;;;;;9.70;6.73;;;;;;;-141.28;100.00;49874.88;5088969;28;20195;-76
2022/09/03 07:32:40;;;;;;;10.03;6.43;;;;;;;-141.28;100.00;49902.34;5085569;28;20230;-78
2022/09/03 07:35:10;;;;;;;7.83;6.23;;;;;;;-141.28;100.00;49874.88;5087235;28;20206;-76
2022/09/03 07:37:41;;;;;;;9.07;6.97;;;;;;;-141.28;100.00;49886.66;5092251;28;20695;-78
2022/09/03 07:40:18;;;;;;;7.83;6.60;;;;;;;-141.28;100.00;49929.81;5094459;28;20207;-77
2022/09/03 07:42:50;;;;;;;8.70;6.53;;;;;;;-141.28;100.00;49963.19;5057872;28;20371;-76
2022/09/03 07:45:18;;;;;;;8.20;6.30;;;;;;;-141.28;100.00;49973.00;5089592;28;20191;-76
2022/09/03 07:47:49;;;;;;;8.40;6.27;;;;;;;-141.28;100.00;49988.69;5097207;28;20219;-74
2022/09/03 07:50:16;;;;;;;8.00;5.67;;;;;;;-141.28;100.00;50000.47;5100255;28;20385;-76
2022/09/03 07:52:44;;;;;;;9.07;6.27;;;;;;;-141.28;100.00;50110.38;5088083;28;20191;-73
2022/09/03 07:55:11;;;;;;;7.23;5.80;;;;;;;-141.28;100.00;50255.63;5073167;28;20203;-75
2022/09/03 07:57:38;;;;;;;7.20;5.63;;;;;;;-141.28;100.00;50271.31;5090739;28;20279;-75
2022/09/03 08:00:17;;;;;;;7.40;6.17;;;;;;;-141.28;100.00;50440.13;5103594;28;20660;-75
2022/09/03 08:02:44;;;;;;;6.10;5.50;;;;;;;-141.28;100.00;50451.91;5097856;28;20219;-75
2022/09/03 08:05:11;;;;;;;7.10;5.80;;;;;;;-141.28;100.00;50518.66;5078573;28;20192;-76
2022/09/03 08:07:38;;;;;;;6.43;5.80;;;;;;;-141.28;100.00;50616.78;5103307;28;20222;-75
2022/09/03 08:10:06;;;;;;;6.50;5.63;;;;;;;-141.28;100.00;50718.88;5081877;28;20279;-74
2022/09/03 08:12:34;;;;;;;8.40;5.87;;;;;;;-141.28;100.00;50801.31;5091822;28;20196;-74
2022/09/03 08:15:03;;;;;;;9.97;5.63;;;;;;;-141.28;100.00;50864.13;5077697;28;21082;-75
2022/09/03 08:17:50;;;;;;;6.93;6.00;;;;;;;-141.28;100.00;51021.19;5083025;28;20666;-74
2022/09/03 08:20:19;;;;;;;6.20;5.60;;;;;;;-141.28;100.00;50934.81;5095455;28;20294;-77
2022/09/03 08:22:47;;;;;;;10.57;5.57;;;;;;;-141.28;100.00;51017.25;5080613;28;20192;-76
2022/09/03 08:25:14;;;;;;;7.87;5.43;;;;;;;-141.28;100.00;50891.63;5104504;28;20191;-77
2022/09/03 08:27:41;;;;;;;7.03;6.33;;;;;;;-141.28;100.00;51032.97;5085626;28;20231;-75
2022/09/03 08:30:10;;;;;;;7.33;5.63;;;;;;;-141.28;100.00;51070.25;5087292;28;20200;-76
2022/09/03 08:32:41;;;;;;;8.13;4.90;;;;;;;-141.28;100.00;51070.25;5092885;28;20202;-78
2022/09/03 08:35:10;;;;;;;6.30;5.23;;;;;;;-141.28;100.00;51099.72;5067541;28;20199;-75
2022/09/03 08:37:38;;;;;;;9.97;6.50;;;;;;;-141.28;100.00;51115.41;5092001;28;20658;-76
2022/09/03 08:40:06;;;;;;;9.37;5.83;;;;;;;-141.28;100.00;51072.22;5075136;28;20262;-76
2022/09/03 08:42:49;;;;;;;8.77;5.50;;;;;;;-141.28;100.00;50946.59;5092591;28;20316;-77
2022/09/03 08:45:20;;;;;;;7.03;6.10;;;;;;;-141.28;100.00;50944.63;5086656;28;20191;-77
2022/09/03 08:47:51;;;;;;;9.57;6.00;;;;;;;-141.28;100.00;50881.78;5086828;28;20311;-77
2022/09/03 08:50:24;;;;;;;9.23;5.67;;;;;;;-141.28;100.00;50897.50;5086488;28;20210;-78
2022/09/03 08:52:58;;;;;;;8.70;6.07;;;;;;;-141.28;100.00;50836.66;5090411;28;20196;-76
2022/09/03 08:55:29;;;;;;;6.47;5.40;;;;;;;-141.28;100.00;50842.53;5090695;28;20195;-76
2022/09/03 08:58:04;;;;;;;6.63;5.80;;;;;;;-141.28;100.00;50813.09;5087997;28;20725;-76
2022/09/03 09:00:43;;;;;;;7.00;6.10;;;;;;;-141.28;100.00;50868.06;5080326;28;20712;-77
2022/09/03 09:03:33;;;;;;;6.50;5.80;;;;;;;-141.28;100.00;50978.00;5073572;28;20196;-76
2022/09/03 09:06:11;;;;;;;9.03;5.10;;;;;;;-141.28;100.00;51080.06;5089684;28;20192;-78
2022/09/03 09:08:46;;;;;;;6.87;5.30;;;;;;;-141.28;100.00;51178.25;5105114;28;20230;-75
2022/09/03 09:11:20;;;;;;;6.67;4.97;;;;;;;-141.28;100.00;51317.63;5096165;28;20205;-75
2022/09/03 09:13:56;;;;;;;5.47;4.93;;;;;;;-141.28;100.00;51453.09;5090806;28;20218;-75
2022/09/03 09:16:33;;;;;;;5.53;5.00;;;;;;;-141.28;100.00;51519.88;5088953;28;20192;-76
2022/09/03 09:19:12;;;;;;;6.00;4.60;;;;;;;-141.28;100.00;51702.47;5098772;28;20191;-76
2022/09/03 09:21:47;;;;;;;5.27;4.67;;;;;;;-141.28;100.00;51898.84;5087017;28;20195;-77
2022/09/03 09:24:22;;;;;;;4.83;4.33;;;;;;;-141.28;100.00;52022.56;5080822;28;20196;-75
2022/09/03 09:26:50;;;;;;;6.40;4.47;;;;;;;-141.28;100.00;52165.91;5083964;28;20221;-75
2022/09/03 09:29:18;;;;;;;5.70;4.70;;;;;;;-141.28;100.00;52226.78;5089358;28;20223;-75
2022/09/03 09:31:46;;;;;;;6.57;4.70;;;;;;;-141.28;100.00;52309.28;5089659;28;20192;-75
2022/09/03 09:34:13;;;;;;;6.23;4.60;;;;;;;-141.28;100.00;52372.13;5081208;28;20215;-77
2022/09/03 09:36:49;;;;;;;5.40;4.90;;;;;;;-141.28;100.00;52438.91;5071590;28;20200;-75
2022/09/03 09:39:17;;;;;;;5.30;4.80;;;;;;;-141.28;100.00;52417.28;5077911;28;20212;-75
2022/09/03 09:41:57;;;;;;;7.33;4.97;;;;;;;-141.28;100.00;52285.72;5090917;28;20214;-76
2022/09/03 09:44:27;;;;;;;6.93;5.07;;;;;;;-141.28;100.00;52348.56;5101971;28;20203;-76
2022/09/03 09:47:05;;;;;;;6.23;4.97;;;;;;;-141.28;100.00;52279.81;5071739;28;20642;-74
2022/09/03 09:49:34;;;;;;;5.90;5.30;;;;;;;-141.28;100.00;52368.19;5073866;28;20258;-73
2022/09/03 09:52:10;;;;;;;10.00;4.63;;;;;;;-141.28;100.00;52328.91;5090446;28;20208;-75
2022/09/03 09:54:38;;;;;;;7.83;4.80;;;;;;;-141.28;100.00;52370.16;5089671;28;20288;-75
2022/09/03 09:57:08;;;;;;;4.70;4.30;;;;;;;-141.28;100.00;52309.28;5087355;28;20196;-76
2022/09/03 09:59:36;;;;;;;5.70;4.83;;;;;;;-141.28;100.00;52285.72;5087955;28;20250;-76
2022/09/03 10:02:14;;;;;;;5.50;5.00;;;;;;;-141.28;100.00;52238.56;5093142;28;20255;-77
2022/09/03 10:04:44;;;;;;;5.70;5.10;;;;;;;-141.28;100.00;52175.72;5094414;28;20187;-76
2022/09/03 10:07:24;;;;;;;7.93;5.17;;;;;;;-141.28;100.00;52187.50;5095586;28;20638;-75
2022/09/03 10:10:20;;;;;;;6.13;5.07;;;;;;;-141.28;100.00;52215.00;5072661;28;21097;-76
2022/09/03 10:12:57;;;;;;;6.43;5.13;;;;;;;-141.28;100.00;52195.38;5095702;28;20248;-77
2022/09/03 10:15:29;;;;;;;6.00;4.83;;;;;;;-141.28;100.00;52281.78;5101210;28;20199;-76
2022/09/03 10:18:04;;;;;;;4.83;4.40;;;;;;;-141.28;100.00;52273.94;5092612;28;20203;-75
2022/09/03 10:20:41;;;;;;;5.07;4.57;;;;;;;-141.28;100.00;52413.38;5091891;28;20223;-75
2022/09/03 10:23:18;;;;;;;4.83;4.37;;;;;;;-141.28;100.00;52421.22;5095625;28;20195;-75
2022/09/03 10:26:03;;;;;;;4.97;4.53;;;;;;;-141.28;100.00;52362.31;5090419;28;20191;-76
2022/09/03 10:28:33;;;;;;;4.47;4.07;;;;;;;-141.28;100.00;52399.63;5086912;28;20251;-78
2022/09/03 10:31:18;;;;;;;5.10;4.37;;;;;;;-141.28;100.00;52364.25;5088614;28;20656;-75
2022/09/03 10:33:51;;;;;;;5.00;4.60;;;;;;;-141.28;100.00;52413.38;5094685;28;20680;-75
2022/09/03 10:36:25;;;;;;;4.77;4.23;;;;;;;-141.28;100.00;52464.44;5082850;28;20197;-75
2022/09/03 10:39:04;;;;;;;9.77;4.97;;;;;;;-141.28;100.00;52417.28;5085542;28;20571;-75
2022/09/03 10:41:46;;;;;;;8.63;4.40;;;;;;;-141.28;100.00;52419.25;5084967;28;20211;-75
2022/09/03 10:44:47;;;;;;;5.47;4.47;;;;;;;-141.28;100.00;52383.91;5091097;28;20206;-76
2022/09/03 10:47:30;;;;;;;4.50;4.10;;;;;;;-141.28;100.00;52325.00;5094610;28;20194;-76
2022/09/03 10:50:09;;;;;;;5.17;4.67;;;;;;;-141.28;100.00;52275.88;5101334;28;20557;-75
2022/09/03 10:52:51;;;;;;;5.20;4.70;;;;;;;-141.28;100.00;52242.50;5095068;28;20796;-75
2022/09/03 10:55:40;;;;;;;5.40;4.57;;;;;;;-141.28;100.00;52160.03;5079939;28;20208;-75
2022/09/03 10:58:28;;;;;;;4.70;4.20;;;;;;;-141.28;100.00;52169.84;5088742;28;20192;-75
2022/09/03 11:01:03;;;;;;;5.53;4.43;;;;;;;-141.28;100.00;52108.97;5078031;28;20232;-76
2022/09/03 11:03:45;;;;;;;7.63;4.20;;;;;;;-141.28;100.00;51938.13;5090245;28;20211;-75
2022/09/03 11:06:18;;;;;;;5.00;4.50;;;;;;;-141.28;100.00;51802.63;5086244;28;20199;-76
2022/09/03 11:08:54;;;;;;;4.80;3.70;;;;;;;-141.28;100.00;51782.97;5096626;28;20314;-75
2022/09/03 11:11:31;;;;;;;5.10;4.60;;;;;;;-141.28;100.00;51904.72;5093891;28;20196;-75
2022/09/03 11:14:06;;;;;;;5.23;4.70;;;;;;;-141.28;100.00;51947.94;5094447;28;20227;-76
2022/09/03 11:16:38;;;;;;;4.80;4.40;;;;;;;-141.28;100.00;51944.00;5086339;28;20257;-76
2022/09/03 11:19:10;;;;;;;4.87;4.40;;;;;;;-141.28;100.00;51951.84;5089336;28;20205;-76
2022/09/03 11:21:41;;;;;;;4.40;4.00;;;;;;;-141.28;100.00;51987.22;5098527;28;20222;-76
2022/09/03 11:24:13;;;;;;;8.10;4.63;;;;;;;-141.28;100.00;51944.00;5097498;28;20275;-75
2022/09/03 11:26:44;;;;;;;4.60;4.20;;;;;;;-141.28;100.00;51904.72;5087086;28;20192;-76
2022/09/03 11:29:18;;;;;;;4.83;4.40;;;;;;;-141.28;100.00;51782.97;5078446;28;20235;-77
2022/09/03 11:31:58;;;;;;;4.90;3.97;;;;;;;-141.28;100.00;51676.94;5081755;28;20196;-74
2022/09/03 11:34:31;;;;;;;5.60;3.57;;;;;;;-141.28;100.00;51482.56;5090023;28;20196;-75
2022/09/03 11:37:07;;;;;;;4.67;3.47;;;;;;;-141.28;100.00;51623.94;5104614;28;20277;-76
2022/09/03 11:39:36;;;;;;;4.40;4.00;;;;;;;-141.28;100.00;51631.78;5096500;28;20199;-76
2022/09/03 11:42:11;;;;;;;3.93;3.63;;;;;;;-141.28;100.00;51515.94;5099709;28;20199;-75